Time,TemperatureF,DewpointF,PressureIn,WindDirection,WindDirectionDegrees,WindSpeedMPH,WindSpeedGustMPH,Humidity,HourlyPrecipIn,Conditions,Clouds,dailyrainin,SoftwareType,DateUTC
2013-08-24 00:07:00,78.1,68.0,29.85,SSE,167,0.0,1.0,71,0.00,,,0.00,weatherlink.com 1.10,2013-08-24 05:07:00,
2013-08-24 00:22:00,77.6,68.0,29.85,SSE,167,0.0,1.0,72,0.00,,,0.00,weatherlink.com 1.10,2013-08-24 05:22:00,
2013-08-24 00:37:00,77.3,68.0,29.85,SSE,167,0.0,3.0,72,0.00,,,0.00,weatherlink.com 1.10,2013-08-24 05:37:00,
2013-08-24 00:52:00,77.1,68.0,29.86,SSE,167,0.0,1.0,73,0.00,,,0.00,weatherlink.com 1.10,2013-08-24 05:52:00,
2013-08-24 01:07:00,76.9,68.0,29.87,SSE,167,0.0,1.0,73,0.00,,,0.00,weatherlink.com 1.10,2013-08-24 06:07:00,
2013-08-24 01:22:00,76.6,68.0,29.87,SSE,167,0.0,2.0,74,0.00,,,0.00,weatherlink.com 1.10,2013-08-24 06:22:00,
2013-08-24 01:37:00,76.4,68.0,29.87,SSE,167,0.0,0.0,74,0.00,,,0.00,weatherlink.com 1.10,2013-08-24 06:37:00,
2013-08-24 01:52:00,76.0,68.0,29.87,SSE,167,0.0,0.0,77,0.00,,,0.00,weatherlink.com 1.10,2013-08-24 06:52:00,
2013-08-24 02:07:00,75.7,68.0,29.87,SSE,167,0.0,0.0,78,0.00,,,0.00,weatherlink.com 1.10,2013-08-24 07:07:00,
2013-08-24 02:22:00,75.5,67.0,29.88,SSE,167,0.0,0.0,76,0.00,,,0.00,weatherlink.com 1.10,2013-08-24 07:22:00,
2013-08-24 02:37:00,75.6,68.0,29.88,SSE,167,0.0,1.0,76,0.00,,,0.00,weatherlink.com 1.10,2013-08-24 07:37:00,
2013-08-24 02:52:00,76.0,67.0,29.88,SSE,167,0.0,1.0,74,0.00,,,0.00,weatherlink.com 1.10,2013-08-24 07:52:00,
2013-08-24 03:07:00,76.2,68.0,29.88,SSE,167,0.0,0.0,75,0.00,,,0.00,weatherlink.com 1.10,2013-08-24 08:07:00,
2013-08-24 03:22:00,76.3,68.0,29.88,SSE,167,0.0,0.0,75,0.00,,,0.00,weatherlink.com 1.10,2013-08-24 08:22:00,
2013-08-24 03:37:00,76.2,69.0,29.88,SSE,167,0.0,0.0,77,0.00,,,0.00,weatherlink.com 1.10,2013-08-24 08:37:00,
2013-08-24 03:52:00,75.8,69.0,29.89,SSE,167,0.0,0.0,78,0.00,,,0.00,weatherlink.com 1.10,2013-08-24 08:52:00,
2013-08-24 04:07:00,75.4,69.0,29.89,SSE,167,0.0,0.0,81,0.00,,,0.00,weatherlink.com 1.10,2013-08-24 09:07:00,
2013-08-24 04:22:00,75.1,68.0,29.89,SSE,167,0.0,0.0,78,0.00,,,0.00,weatherlink.com 1.10,2013-08-24 09:22:00,
2013-08-24 04:37:00,75.0,68.0,29.89,SSE,167,0.0,0.0,79,0.00,,,0.00,weatherlink.com 1.10,2013-08-24 09:37:00,
2013-08-24 04:52:00,74.9,69.0,29.89,SSE,167,0.0,0.0,81,0.00,,,0.00,weatherlink.com 1.10,2013-08-24 09:52:00,
2013-08-24 05:07:00,74.9,69.0,29.89,SSE,167,0.0,0.0,81,0.00,,,0.00,weatherlink.com 1.10,2013-08-24 10:07:00,
2013-08-24 05:22:00,74.8,69.0,29.88,SSE,167,0.0,0.0,82,0.00,,,0.00,weatherlink.com 1.10,2013-08-24 10:22:00,
2013-08-24 05:37:00,74.7,69.0,29.89,SSE,167,0.0,0.0,82,0.00,,,0.00,weatherlink.com 1.10,2013-08-24 10:37:00,
2013-08-24 05:52:00,74.4,68.0,29.89,SSE,167,0.0,0.0,81,0.00,,,0.00,weatherlink.com 1.10,2013-08-24 10:52:00,
2013-08-24 06:07:00,73.9,69.0,29.89,SSE,167,0.0,0.0,83,0.00,,,0.00,weatherlink.com 1.10,2013-08-24 11:07:00,
2013-08-24 06:22:00,73.6,69.0,29.90,SSE,167,0.0,0.0,85,0.00,,,0.00,weatherlink.com 1.10,2013-08-24 11:22:00,
2013-08-24 06:37:00,73.2,69.0,29.90,SSE,167,0.0,0.0,86,0.00,,,0.00,weatherlink.com 1.10,2013-08-24 11:37:00,
2013-08-24 06:52:00,72.8,68.0,29.90,SSE,167,0.0,0.0,85,0.00,,,0.00,weatherlink.com 1.10,2013-08-24 11:52:00,
2013-08-24 07:07:00,72.7,68.0,29.91,SSE,167,0.0,0.0,85,0.00,,,0.00,weatherlink.com 1.10,2013-08-24 12:07:00,
2013-08-24 07:22:00,72.6,69.0,29.91,SSE,167,0.0,0.0,87,0.00,,,0.00,weatherlink.com 1.10,2013-08-24 12:22:00,
2013-08-24 07:37:00,72.6,69.0,29.92,SSE,167,0.0,0.0,88,0.00,,,0.00,weatherlink.com 1.10,2013-08-24 12:37:00,
2013-08-24 07:52:00,73.3,69.0,29.92,SSE,167,0.0,2.0,86,0.00,,,0.00,weatherlink.com 1.10,2013-08-24 12:52:00,
2013-08-24 08:07:00,75.0,69.0,29.92,SSE,167,0.0,1.0,82,0.00,,,0.00,weatherlink.com 1.10,2013-08-24 13:07:00,
2013-08-24 08:22:00,76.5,69.0,29.93,SSE,167,0.0,3.0,78,0.00,,,0.00,weatherlink.com 1.10,2013-08-24 13:22:00,
2013-08-24 08:37:00,77.4,69.0,29.94,SSE,167,0.0,2.0,75,0.00,,,0.00,weatherlink.com 1.10,2013-08-24 13:37:00,
2013-08-24 08:53:00,77.8,69.0,29.94,SSE,167,0.0,1.0,75,0.00,,,0.00,weatherlink.com 1.10,2013-08-24 13:53:00,
2013-08-24 09:23:00,79.7,70.0,29.95,SSE,167,0.0,0.0,71,0.00,,,0.00,weatherlink.com 1.10,2013-08-24 14:23:00,
2013-08-24 09:52:00,82.7,70.0,29.95,SSE,167,0.0,3.0,66,0.00,,,0.00,weatherlink.com 1.10,2013-08-24 14:52:00,
2013-08-24 10:23:00,85.3,71.0,29.95,SSE,167,0.0,3.0,63,0.00,,,0.00,weatherlink.com 1.10,2013-08-24 15:23:00,
2013-08-24 10:38:00,86.9,70.0,29.95,SSE,167,0.0,3.0,58,0.00,,,0.00,weatherlink.com 1.10,2013-08-24 15:38:00,
2013-08-24 11:08:00,88.4,69.0,29.95,SSE,165,1.0,5.0,53,0.00,,,0.00,weatherlink.com 1.10,2013-08-24 16:08:00,
2013-08-24 11:23:00,88.8,68.0,29.95,SSE,166,1.0,4.0,51,0.00,,,0.00,weatherlink.com 1.10,2013-08-24 16:23:00,
2013-08-24 11:38:00,89.7,69.0,29.95,SSE,160,3.0,6.0,51,0.00,,,0.00,weatherlink.com 1.10,2013-08-24 16:38:00,
2013-08-24 11:53:00,90.3,69.0,29.94,SE,144,0.0,6.0,49,0.00,,,0.00,weatherlink.com 1.10,2013-08-24 16:53:00,
2013-08-24 12:08:00,90.4,68.0,29.94,SE,142,1.0,7.0,48,0.00,,,0.00,weatherlink.com 1.10,2013-08-24 17:08:00,
2013-08-24 12:23:00,91.2,69.0,29.93,ESE,114,3.0,7.0,48,0.00,,,0.00,weatherlink.com 1.10,2013-08-24 17:23:00,
2013-08-24 12:39:00,92.1,68.0,29.93,NE,38,1.0,7.0,46,0.00,,,0.00,weatherlink.com 1.10,2013-08-24 17:39:00,
2013-08-24 12:54:00,92.6,69.0,29.92,NNE,31,1.0,9.0,46,0.00,,,0.00,weatherlink.com 1.10,2013-08-24 17:54:00,
2013-08-24 13:09:00,93.7,69.0,29.91,NE,41,1.0,8.0,44,0.00,,,0.00,weatherlink.com 1.10,2013-08-24 18:09:00,
2013-08-24 13:24:00,93.9,67.0,29.91,NE,35,0.0,10.0,42,0.00,,,0.00,weatherlink.com 1.10,2013-08-24 18:24:00,
2013-08-24 13:39:00,93.7,69.0,29.91,NE,46,4.0,8.0,44,0.00,,,0.00,weatherlink.com 1.10,2013-08-24 18:39:00,
2013-08-24 13:54:00,94.0,68.0,29.90,ENE,69,1.0,10.0,43,0.00,,,0.00,weatherlink.com 1.10,2013-08-24 18:54:00,
2013-08-24 14:09:00,92.3,68.0,29.89,ENE,68,4.0,9.0,45,0.00,,,0.00,weatherlink.com 1.10,2013-08-24 19:09:00,
2013-08-24 14:24:00,94.5,68.0,29.89,SE,132,2.0,9.0,42,0.00,,,0.00,weatherlink.com 1.10,2013-08-24 19:24:00,
2013-08-24 14:54:00,95.0,68.0,29.88,NE,44,5.0,7.0,42,0.00,,,0.00,weatherlink.com 1.10,2013-08-24 19:54:00,
2013-08-24 15:09:00,95.0,67.0,29.87,NE,44,5.0,11.0,40,0.00,,,0.00,weatherlink.com 1.10,2013-08-24 20:09:00,
2013-08-24 15:24:00,94.6,67.0,29.86,East,80,5.0,11.0,41,0.00,,,0.00,weatherlink.com 1.10,2013-08-24 20:24:00,
2013-08-24 15:39:00,95.8,67.0,29.85,NE,43,0.0,10.0,39,0.00,,,0.00,weatherlink.com 1.10,2013-08-24 20:39:00,
2013-08-24 16:09:00,96.8,65.0,29.84,SE,128,3.0,7.0,35,0.00,,,0.00,weatherlink.com 1.10,2013-08-24 21:09:00,
2013-08-24 16:25:00,97.1,66.0,29.84,SE,126,5.0,10.0,36,0.00,,,0.00,weatherlink.com 1.10,2013-08-24 21:25:00,
2013-08-24 16:39:00,96.3,67.0,29.83,SSE,155,4.0,11.0,38,0.00,,,0.00,weatherlink.com 1.10,2013-08-24 21:39:00,
2013-08-24 16:55:00,97.4,68.0,29.82,SSE,148,3.0,12.0,38,0.00,,,0.00,weatherlink.com 1.10,2013-08-24 21:55:00,
2013-08-24 17:10:00,96.1,67.0,29.82,SSE,148,5.0,10.0,39,0.00,,,0.00,weatherlink.com 1.10,2013-08-24 22:10:00,
2013-08-24 17:25:00,96.5,67.0,29.82,SE,126,6.0,10.0,38,0.00,,,0.00,weatherlink.com 1.10,2013-08-24 22:25:00,
2013-08-24 17:40:00,95.5,65.0,29.82,SE,136,6.0,13.0,37,0.00,,,0.00,weatherlink.com 1.10,2013-08-24 22:40:00,
2013-08-24 17:55:00,96.0,65.0,29.82,ENE,74,5.0,13.0,36,0.00,,,0.00,weatherlink.com 1.10,2013-08-24 22:55:00,
2013-08-24 18:10:00,95.7,64.0,29.82,ESE,110,7.0,13.0,35,0.00,,,0.00,weatherlink.com 1.10,2013-08-24 23:10:00,
2013-08-24 18:25:00,95.2,64.0,29.83,ESE,104,7.0,10.0,35,0.00,,,0.00,weatherlink.com 1.10,2013-08-24 23:25:00,
2013-08-24 18:40:00,94.7,63.0,29.83,SSE,159,4.0,10.0,35,0.00,,,0.00,weatherlink.com 1.10,2013-08-24 23:40:00,
2013-08-24 18:55:00,94.2,62.0,29.83,ESE,111,4.0,8.0,34,0.00,,,0.00,weatherlink.com 1.10,2013-08-24 23:55:00,
2013-08-24 19:10:00,93.0,63.0,29.82,East,96,2.0,8.0,37,0.00,,,0.00,weatherlink.com 1.10,2013-08-25 00:10:00,
2013-08-24 19:25:00,92.3,65.0,29.82,East,96,0.0,5.0,40,0.00,,,0.00,weatherlink.com 1.10,2013-08-25 00:25:00,
2013-08-24 19:40:00,91.8,66.0,29.82,SE,138,1.0,5.0,42,0.00,,,0.00,weatherlink.com 1.10,2013-08-25 00:40:00,
2013-08-24 19:55:00,90.9,65.0,29.83,SE,128,0.0,4.0,43,0.00,,,0.00,weatherlink.com 1.10,2013-08-25 00:55:00,
2013-08-24 20:10:00,90.0,66.0,29.84,SE,124,2.0,5.0,45,0.00,,,0.00,weatherlink.com 1.10,2013-08-25 01:10:00,
2013-08-24 20:25:00,89.1,66.0,29.84,SE,124,0.0,3.0,47,0.00,,,0.00,weatherlink.com 1.10,2013-08-25 01:25:00,
2013-08-24 20:40:00,88.3,66.0,29.85,SE,124,0.0,4.0,48,0.00,,,0.00,weatherlink.com 1.10,2013-08-25 01:40:00,
2013-08-24 20:55:00,87.7,67.0,29.85,SE,124,1.0,3.0,50,0.00,,,0.00,weatherlink.com 1.10,2013-08-25 01:55:00,
2013-08-24 21:10:00,87.0,67.0,29.86,SE,124,0.0,2.0,51,0.00,,,0.00,weatherlink.com 1.10,2013-08-25 02:10:00,
2013-08-24 21:25:00,86.2,66.0,29.86,SE,124,0.0,1.0,52,0.00,,,0.00,weatherlink.com 1.10,2013-08-25 02:25:00,
2013-08-24 21:40:00,85.5,66.0,29.87,SE,124,0.0,1.0,53,0.00,,,0.00,weatherlink.com 1.10,2013-08-25 02:40:00,
2013-08-24 21:55:00,84.8,66.0,29.88,SE,124,0.0,1.0,53,0.00,,,0.00,weatherlink.com 1.10,2013-08-25 02:55:00,
2013-08-24 22:10:00,84.0,66.0,29.88,SE,124,0.0,0.0,54,0.00,,,0.00,weatherlink.com 1.10,2013-08-25 03:10:00,
2013-08-24 22:25:00,83.1,66.0,29.89,SE,124,0.0,0.0,56,0.00,,,0.00,weatherlink.com 1.10,2013-08-25 03:25:00,
2013-08-24 22:40:00,82.1,66.0,29.90,SE,124,1.0,1.0,59,0.00,,,0.00,weatherlink.com 1.10,2013-08-25 03:40:00,
2013-08-24 22:55:00,82.2,65.0,29.90,SE,124,0.0,2.0,57,0.00,,,0.00,weatherlink.com 1.10,2013-08-25 03:55:00,
2013-08-24 23:10:00,82.1,66.0,29.90,SE,124,0.0,2.0,58,0.00,,,0.00,weatherlink.com 1.10,2013-08-25 04:10:00,
2013-08-24 23:25:00,81.9,66.0,29.91,SE,124,0.0,1.0,58,0.00,,,0.00,weatherlink.com 1.10,2013-08-25 04:25:00,
2013-08-24 23:40:00,81.7,66.0,29.91,SE,124,0.0,1.0,59,0.00,,,0.00,weatherlink.com 1.10,2013-08-25 04:40:00,
2013-08-24 23:55:00,81.1,66.0,29.91,SE,124,0.0,4.0,60,0.00,,,0.00,weatherlink.com 1.10,2013-08-25 04:55:00,